KSBM/SBM METAR and TAF weather

Enter ICAO airport designator
Station Type Date Time Source
KSBM METAR 2019/04/22 17:53 UTC NOAA

KSBM 221753Z AUTO 16006KT 10SM CLR 16/07 A2995 RMK AO2 SLP144 T01610072 10167 20094 56012


Station Type Date Time Source
KSBM Decoded METAR 2019/04/22 17:53 UTC NOAA

SHEBOYGAN CO MEMORIAL AIRPORT , WI, United States (KSBM) 43-47N 87-51W 232M
Apr 22, 2019 - 01:53 PM EDT / 2019.04.22 1753 UTC
Wind: from the SSE (160 degrees) at 7 MPH (6 KT):0
Visibility: 10 mile(s):0
Sky conditions: clear
Temperature: 61.0 F (16.1 C)
Dew Point: 45.0 F (7.2 C)
Relative Humidity: 55%
Pressure (altimeter): 29.95 in. Hg (1014 hPa)
Pressure tendency: 0.04 inches (1.2 hPa) lower than three hours ago
ob: KSBM 221753Z AUTO 16006KT 10SM CLR 16/07 A2995 RMK AO2 SLP144 T01610072 10167 20094 56012
cycle: 18

Station Type Date Time Source
KSBM TAF UTC NOAA

Error!

Example: see airport list